sensor_id;sensor_type;location;lat;lon;timestamp;P1;P2;P0
28026;PMS5003;15344;52.342;-1.290;2023-11-19T00:00:57;24;11;
28026;PMS5003;15344;52.342;-1.290;2023-11-19T00:03:23;13;6;
28026;PMS5003;15344;52.342;-1.290;2023-11-19T00:05:48;13;5;
28026;PMS5003;15344;52.342;-1.290;2023-11-19T00:08:14;17;6;
28026;PMS5003;15344;52.342;-1.290;2023-11-19T00:10:40;9;4;
28026;PMS5003;15344;52.342;-1.290;2023-11-19T00:13:06;14;4;
28026;PMS5003;15344;52.342;-1.290;2023-11-19T00:15:31;10;7;
28026;PMS5003;15344;52.342;-1.290;2023-11-19T00:17:57;15;6;
28026;PMS5003;15344;52.342;-1.290;2023-11-19T00:20:22;14;5;
28026;PMS5003;15344;52.342;-1.290;2023-11-19T00:22:48;12;6;
28026;PMS5003;15344;52.342;-1.290;2023-11-19T00:25:13;17;7;
28026;PMS5003;15344;52.342;-1.290;2023-11-19T00:27:38;14;7;
28026;PMS5003;15344;52.342;-1.290;2023-11-19T00:30:09;16;7;
28026;PMS5003;15344;52.342;-1.290;2023-11-19T00:32:30;12;6;
28026;PMS5003;15344;52.342;-1.290;2023-11-19T00:34:56;14;7;
28026;PMS5003;15344;52.342;-1.290;2023-11-19T00:37:22;10;7;
28026;PMS5003;15344;52.342;-1.290;2023-11-19T00:39:47;12;5;
28026;PMS5003;15344;52.342;-1.290;2023-11-19T00:42:13;10;5;
28026;PMS5003;15344;52.342;-1.290;2023-11-19T00:44:38;9;8;
28026;PMS5003;15344;52.342;-1.290;2023-11-19T00:47:04;17;7;
28026;PMS5003;15344;52.342;-1.290;2023-11-19T00:49:29;21;8;
28026;PMS5003;15344;52.342;-1.290;2023-11-19T00:51:55;17;9;
28026;PMS5003;15344;52.342;-1.290;2023-11-19T00:54:21;16;6;
28026;PMS5003;15344;52.342;-1.290;2023-11-19T00:56:46;17;7;
28026;PMS5003;15344;52.342;-1.290;2023-11-19T00:59:11;8;5;
28026;PMS5003;15344;52.342;-1.290;2023-11-19T01:01:37;8;5;
28026;PMS5003;15344;52.342;-1.290;2023-11-19T01:04:02;11;7;
28026;PMS5003;15344;52.342;-1.290;2023-11-19T01:06:27;8;5;
28026;PMS5003;15344;52.342;-1.290;2023-11-19T01:08:53;10;4;
28026;PMS5003;15344;52.342;-1.290;2023-11-19T01:11:19;12;5;
28026;PMS5003;15344;52.342;-1.290;2023-11-19T01:13:44;17;8;
28026;PMS5003;15344;52.342;-1.290;2023-11-19T01:16:09;11;6;
28026;PMS5003;15344;52.342;-1.290;2023-11-19T01:18:34;16;6;
28026;PMS5003;15344;52.342;-1.290;2023-11-19T01:21:00;16;5;
28026;PMS5003;15344;52.342;-1.290;2023-11-19T01:23:25;11;6;
28026;PMS5003;15344;52.342;-1.290;2023-11-19T01:25:51;14;6;
28026;PMS5003;15344;52.342;-1.290;2023-11-19T01:28:16;14;7;
28026;PMS5003;15344;52.342;-1.290;2023-11-19T01:30:42;17;8;
28026;PMS5003;15344;52.342;-1.290;2023-11-19T01:33:07;12;5;
28026;PMS5003;15344;52.342;-1.290;2023-11-19T01:35:33;10;6;
28026;PMS5003;15344;52.342;-1.290;2023-11-19T01:37:58;18;9;
28026;PMS5003;15344;52.342;-1.290;2023-11-19T01:40:24;14;6;
28026;PMS5003;15344;52.342;-1.290;2023-11-19T01:42:49;21;6;
28026;PMS5003;15344;52.342;-1.290;2023-11-19T01:45:22;12;6;
28026;PMS5003;15344;52.342;-1.290;2023-11-19T01:47:39;16;7;
28026;PMS5003;15344;52.342;-1.290;2023-11-19T01:50:07;10;8;
28026;PMS5003;15344;52.342;-1.290;2023-11-19T01:52:31;13;6;
28026;PMS5003;15344;52.342;-1.290;2023-11-19T01:54:56;9;5;
28026;PMS5003;15344;52.342;-1.290;2023-11-19T01:57:22;13;4;
28026;PMS5003;15344;52.342;-1.290;2023-11-19T01:59:47;11;6;
28026;PMS5003;15344;52.342;-1.290;2023-11-19T02:02:12;10;7;
28026;PMS5003;15344;52.342;-1.290;2023-11-19T02:04:38;17;6;
28026;PMS5003;15344;52.342;-1.290;2023-11-19T02:07:04;20;7;
28026;PMS5003;15344;52.342;-1.290;2023-11-19T02:09:28;22;4;
28026;PMS5003;15344;52.342;-1.290;2023-11-19T02:11:54;7;6;
28026;PMS5003;15344;52.342;-1.290;2023-11-19T02:14:20;8;4;
28026;PMS5003;15344;52.342;-1.290;2023-11-19T02:16:45;10;8;
28026;PMS5003;15344;52.342;-1.290;2023-11-19T02:19:10;11;6;
28026;PMS5003;15344;52.342;-1.290;2023-11-19T02:21:35;8;5;
28026;PMS5003;15344;52.342;-1.290;2023-11-19T02:24:01;8;4;
28026;PMS5003;15344;52.342;-1.290;2023-11-19T02:26:27;7;6;
28026;PMS5003;15344;52.342;-1.290;2023-11-19T02:28:51;15;7;
28026;PMS5003;15344;52.342;-1.290;2023-11-19T02:31:17;8;6;
28026;PMS5003;15344;52.342;-1.290;2023-11-19T02:33:42;4;4;
28026;PMS5003;15344;52.342;-1.290;2023-11-19T02:36:08;6;5;
28026;PMS5003;15344;52.342;-1.290;2023-11-19T02:38:32;15;8;
28026;PMS5003;15344;52.342;-1.290;2023-11-19T02:40:58;15;6;
28026;PMS5003;15344;52.342;-1.290;2023-11-19T02:43:24;7;3;
28026;PMS5003;15344;52.342;-1.290;2023-11-19T02:45:50;12;4;
28026;PMS5003;15344;52.342;-1.290;2023-11-19T02:48:15;15;5;
28026;PMS5003;15344;52.342;-1.290;2023-11-19T02:50:40;11;6;
28026;PMS5003;15344;52.342;-1.290;2023-11-19T02:53:05;19;8;
28026;PMS5003;15344;52.342;-1.290;2023-11-19T02:55:31;9;3;
28026;PMS5003;15344;52.342;-1.290;2023-11-19T02:57:56;8;4;
28026;PMS5003;15344;52.342;-1.290;2023-11-19T03:00:22;10;5;
28026;PMS5003;15344;52.342;-1.290;2023-11-19T03:02:48;9;6;
28026;PMS5003;15344;52.342;-1.290;2023-11-19T03:05:14;14;4;
28026;PMS5003;15344;52.342;-1.290;2023-11-19T03:07:39;16;5;
28026;PMS5003;15344;52.342;-1.290;2023-11-19T03:10:05;7;3;
28026;PMS5003;15344;52.342;-1.290;2023-11-19T03:12:30;17;7;
28026;PMS5003;15344;52.342;-1.290;2023-11-19T03:14:55;8;6;
28026;PMS5003;15344;52.342;-1.290;2023-11-19T03:17:21;9;5;
28026;PMS5003;15344;52.342;-1.290;2023-11-19T03:19:47;16;4;
28026;PMS5003;15344;52.342;-1.290;2023-11-19T03:22:13;13;5;
28026;PMS5003;15344;52.342;-1.290;2023-11-19T03:24:38;15;7;
28026;PMS5003;15344;52.342;-1.290;2023-11-19T03:27:03;10;7;
28026;PMS5003;15344;52.342;-1.290;2023-11-19T03:29:29;8;5;
28026;PMS5003;15344;52.342;-1.290;2023-11-19T03:31:55;10;5;
28026;PMS5003;15344;52.342;-1.290;2023-11-19T03:34:19;13;7;
28026;PMS5003;15344;52.342;-1.290;2023-11-19T03:36:44;9;5;
28026;PMS5003;15344;52.342;-1.290;2023-11-19T03:39:10;5;4;
28026;PMS5003;15344;52.342;-1.290;2023-11-19T03:41:35;13;5;
28026;PMS5003;15344;52.342;-1.290;2023-11-19T03:44:00;13;8;
28026;PMS5003;15344;52.342;-1.290;2023-11-19T03:46:26;10;3;
28026;PMS5003;15344;52.342;-1.290;2023-11-19T03:48:51;24;11;
28026;PMS5003;15344;52.342;-1.290;2023-11-19T03:51:17;14;7;
28026;PMS5003;15344;52.342;-1.290;2023-11-19T03:53:42;10;6;
28026;PMS5003;15344;52.342;-1.290;2023-11-19T03:56:08;11;5;
28026;PMS5003;15344;52.342;-1.290;2023-11-19T03:58:33;16;6;
28026;PMS5003;15344;52.342;-1.290;2023-11-19T04:00:58;12;8;
28026;PMS5003;15344;52.342;-1.290;2023-11-19T04:03:23;11;5;
28026;PMS5003;15344;52.342;-1.290;2023-11-19T04:05:49;12;6;
28026;PMS5003;15344;52.342;-1.290;2023-11-19T04:08:14;8;4;
28026;PMS5003;15344;52.342;-1.290;2023-11-19T04:10:40;10;6;
28026;PMS5003;15344;52.342;-1.290;2023-11-19T04:13:05;7;5;
28026;PMS5003;15344;52.342;-1.290;2023-11-19T04:15:30;10;3;
28026;PMS5003;15344;52.342;-1.290;2023-11-19T04:17:55;7;5;
28026;PMS5003;15344;52.342;-1.290;2023-11-19T04:20:21;20;5;
28026;PMS5003;15344;52.342;-1.290;2023-11-19T04:22:47;5;2;
28026;PMS5003;15344;52.342;-1.290;2023-11-19T04:25:12;4;3;
28026;PMS5003;15344;52.342;-1.290;2023-11-19T04:27:37;7;2;
28026;PMS5003;15344;52.342;-1.290;2023-11-19T04:30:03;5;3;
28026;PMS5003;15344;52.342;-1.290;2023-11-19T04:32:28;8;3;
28026;PMS5003;15344;52.342;-1.290;2023-11-19T04:34:53;3;0;
28026;PMS5003;15344;52.342;-1.290;2023-11-19T04:37:18;9;2;
28026;PMS5003;15344;52.342;-1.290;2023-11-19T04:39:44;8;3;
28026;PMS5003;15344;52.342;-1.290;2023-11-19T04:42:09;6;5;
28026;PMS5003;15344;52.342;-1.290;2023-11-19T04:44:34;2;2;
28026;PMS5003;15344;52.342;-1.290;2023-11-19T04:47:00;10;4;
28026;PMS5003;15344;52.342;-1.290;2023-11-19T04:49:25;5;3;
28026;PMS5003;15344;52.342;-1.290;2023-11-19T04:51:50;5;2;
28026;PMS5003;15344;52.342;-1.290;2023-11-19T04:54:15;4;2;
28026;PMS5003;15344;52.342;-1.290;2023-11-19T04:56:44;6;6;
28026;PMS5003;15344;52.342;-1.290;2023-11-19T04:59:06;6;5;
28026;PMS5003;15344;52.342;-1.290;2023-11-19T05:01:32;8;3;
28026;PMS5003;15344;52.342;-1.290;2023-11-19T05:03:57;3;3;
28026;PMS5003;15344;52.342;-1.290;2023-11-19T05:06:23;8;4;
28026;PMS5003;15344;52.342;-1.290;2023-11-19T05:08:48;3;3;
28026;PMS5003;15344;52.342;-1.290;2023-11-19T05:11:13;6;5;
28026;PMS5003;15344;52.342;-1.290;2023-11-19T05:13:39;6;1;
28026;PMS5003;15344;52.342;-1.290;2023-11-19T05:16:05;6;2;
28026;PMS5003;15344;52.342;-1.290;2023-11-19T05:18:29;7;2;
28026;PMS5003;15344;52.342;-1.290;2023-11-19T05:20:55;4;3;
28026;PMS5003;15344;52.342;-1.290;2023-11-19T05:23:20;9;4;
28026;PMS5003;15344;52.342;-1.290;2023-11-19T05:25:45;6;3;
28026;PMS5003;15344;52.342;-1.290;2023-11-19T05:28:11;6;3;
28026;PMS5003;15344;52.342;-1.290;2023-11-19T05:30:36;5;3;
28026;PMS5003;15344;52.342;-1.290;2023-11-19T05:33:02;6;3;
28026;PMS5003;15344;52.342;-1.290;2023-11-19T05:35:28;9;4;
28026;PMS5003;15344;52.342;-1.290;2023-11-19T05:37:53;7;4;
28026;PMS5003;15344;52.342;-1.290;2023-11-19T05:40:18;7;5;
28026;PMS5003;15344;52.342;-1.290;2023-11-19T05:42:43;5;3;
28026;PMS5003;15344;52.342;-1.290;2023-11-19T05:45:10;5;2;
28026;PMS5003;15344;52.342;-1.290;2023-11-19T05:47:34;7;4;
28026;PMS5003;15344;52.342;-1.290;2023-11-19T05:49:59;5;3;
28026;PMS5003;15344;52.342;-1.290;2023-11-19T05:52:25;3;2;
28026;PMS5003;15344;52.342;-1.290;2023-11-19T05:54:50;9;4;
28026;PMS5003;15344;52.342;-1.290;2023-11-19T05:57:15;6;4;
28026;PMS5003;15344;52.342;-1.290;2023-11-19T05:59:41;4;4;
28026;PMS5003;15344;52.342;-1.290;2023-11-19T06:02:07;3;2;
28026;PMS5003;15344;52.342;-1.290;2023-11-19T06:04:33;8;3;
28026;PMS5003;15344;52.342;-1.290;2023-11-19T06:06:58;4;3;
28026;PMS5003;15344;52.342;-1.290;2023-11-19T06:09:23;7;5;
28026;PMS5003;15344;52.342;-1.290;2023-11-19T06:11:48;5;4;
28026;PMS5003;15344;52.342;-1.290;2023-11-19T06:14:14;3;3;
28026;PMS5003;15344;52.342;-1.290;2023-11-19T06:16:39;10;4;
28026;PMS5003;15344;52.342;-1.290;2023-11-19T06:19:05;8;4;
28026;PMS5003;15344;52.342;-1.290;2023-11-19T06:21:30;6;4;
28026;PMS5003;15344;52.342;-1.290;2023-11-19T06:23:55;7;3;
28026;PMS5003;15344;52.342;-1.290;2023-11-19T06:26:20;8;5;
28026;PMS5003;15344;52.342;-1.290;2023-11-19T06:28:46;7;5;
28026;PMS5003;15344;52.342;-1.290;2023-11-19T06:31:12;8;2;
28026;PMS5003;15344;52.342;-1.290;2023-11-19T06:33:37;6;3;
28026;PMS5003;15344;52.342;-1.290;2023-11-19T06:36:03;6;5;
28026;PMS5003;15344;52.342;-1.290;2023-11-19T06:38:28;3;3;
28026;PMS5003;15344;52.342;-1.290;2023-11-19T06:40:53;9;3;
28026;PMS5003;15344;52.342;-1.290;2023-11-19T06:43:19;4;4;
28026;PMS5003;15344;52.342;-1.290;2023-11-19T06:45:44;3;2;
28026;PMS5003;15344;52.342;-1.290;2023-11-19T06:48:09;6;2;
28026;PMS5003;15344;52.342;-1.290;2023-11-19T06:50:35;5;5;
28026;PMS5003;15344;52.342;-1.290;2023-11-19T06:53:00;7;6;
28026;PMS5003;15344;52.342;-1.290;2023-11-19T06:55:25;14;4;
28026;PMS5003;15344;52.342;-1.290;2023-11-19T06:57:51;7;6;
28026;PMS5003;15344;52.342;-1.290;2023-11-19T07:00:17;9;4;
28026;PMS5003;15344;52.342;-1.290;2023-11-19T07:02:42;10;5;
28026;PMS5003;15344;52.342;-1.290;2023-11-19T07:05:07;10;4;
28026;PMS5003;15344;52.342;-1.290;2023-11-19T07:07:32;11;3;
28026;PMS5003;15344;52.342;-1.290;2023-11-19T07:09:58;11;5;
28026;PMS5003;15344;52.342;-1.290;2023-11-19T07:12:24;7;2;
28026;PMS5003;15344;52.342;-1.290;2023-11-19T07:14:49;6;3;
28026;PMS5003;15344;52.342;-1.290;2023-11-19T07:17:14;6;4;
28026;PMS5003;15344;52.342;-1.290;2023-11-19T07:19:40;2;1;
28026;PMS5003;15344;52.342;-1.290;2023-11-19T07:22:05;5;3;
28026;PMS5003;15344;52.342;-1.290;2023-11-19T07:24:31;6;3;
28026;PMS5003;15344;52.342;-1.290;2023-11-19T07:26:57;3;3;
28026;PMS5003;15344;52.342;-1.290;2023-11-19T07:29:22;9;3;
28026;PMS5003;15344;52.342;-1.290;2023-11-19T07:31:48;10;4;
28026;PMS5003;15344;52.342;-1.290;2023-11-19T07:34:12;8;4;
28026;PMS5003;15344;52.342;-1.290;2023-11-19T07:36:37;5;3;
28026;PMS5003;15344;52.342;-1.290;2023-11-19T07:39:03;4;4;
28026;PMS5003;15344;52.342;-1.290;2023-11-19T07:41:28;8;2;
28026;PMS5003;15344;52.342;-1.290;2023-11-19T07:43:54;7;4;
28026;PMS5003;15344;52.342;-1.290;2023-11-19T07:46:19;3;2;
28026;PMS5003;15344;52.342;-1.290;2023-11-19T07:48:44;6;5;
28026;PMS5003;15344;52.342;-1.290;2023-11-19T07:51:10;10;4;
28026;PMS5003;15344;52.342;-1.290;2023-11-19T07:53:35;3;3;
28026;PMS5003;15344;52.342;-1.290;2023-11-19T07:56:00;7;2;
28026;PMS5003;15344;52.342;-1.290;2023-11-19T07:58:25;9;6;
28026;PMS5003;15344;52.342;-1.290;2023-11-19T08:00:51;10;5;
28026;PMS5003;15344;52.342;-1.290;2023-11-19T08:03:16;9;6;
28026;PMS5003;15344;52.342;-1.290;2023-11-19T08:05:41;7;5;
28026;PMS5003;15344;52.342;-1.290;2023-11-19T08:08:06;8;5;
28026;PMS5003;15344;52.342;-1.290;2023-11-19T08:10:32;12;5;
28026;PMS5003;15344;52.342;-1.290;2023-11-19T08:12:57;7;4;
28026;PMS5003;15344;52.342;-1.290;2023-11-19T08:15:22;7;4;
28026;PMS5003;15344;52.342;-1.290;2023-11-19T08:17:48;6;4;
28026;PMS5003;15344;52.342;-1.290;2023-11-19T08:20:13;5;3;
28026;PMS5003;15344;52.342;-1.290;2023-11-19T08:22:39;5;5;
28026;PMS5003;15344;52.342;-1.290;2023-11-19T08:25:05;8;5;
28026;PMS5003;15344;52.342;-1.290;2023-11-19T08:27:30;6;4;
28026;PMS5003;15344;52.342;-1.290;2023-11-19T08:29:55;6;2;
28026;PMS5003;15344;52.342;-1.290;2023-11-19T08:32:20;14;3;
28026;PMS5003;15344;52.342;-1.290;2023-11-19T08:34:46;5;3;
28026;PMS5003;15344;52.342;-1.290;2023-11-19T08:37:11;7;5;
28026;PMS5003;15344;52.342;-1.290;2023-11-19T08:39:36;13;5;
28026;PMS5003;15344;52.342;-1.290;2023-11-19T08:42:01;9;5;
28026;PMS5003;15344;52.342;-1.290;2023-11-19T08:44:26;7;2;
28026;PMS5003;15344;52.342;-1.290;2023-11-19T08:46:52;7;5;
28026;PMS5003;15344;52.342;-1.290;2023-11-19T08:49:17;9;3;
28026;PMS5003;15344;52.342;-1.290;2023-11-19T08:51:42;8;6;
28026;PMS5003;15344;52.342;-1.290;2023-11-19T08:54:07;4;4;
28026;PMS5003;15344;52.342;-1.290;2023-11-19T08:56:33;13;5;
28026;PMS5003;15344;52.342;-1.290;2023-11-19T08:58:58;10;5;
28026;PMS5003;15344;52.342;-1.290;2023-11-19T09:01:23;9;6;
28026;PMS5003;15344;52.342;-1.290;2023-11-19T09:03:49;6;5;
28026;PMS5003;15344;52.342;-1.290;2023-11-19T09:06:14;10;5;
28026;PMS5003;15344;52.342;-1.290;2023-11-19T09:08:39;12;3;
28026;PMS5003;15344;52.342;-1.290;2023-11-19T09:11:07;11;2;
28026;PMS5003;15344;52.342;-1.290;2023-11-19T09:13:30;11;5;
28026;PMS5003;15344;52.342;-1.290;2023-11-19T09:15:56;4;2;
28026;PMS5003;15344;52.342;-1.290;2023-11-19T09:18:21;8;2;
28026;PMS5003;15344;52.342;-1.290;2023-11-19T09:20:47;12;5;
28026;PMS5003;15344;52.342;-1.290;2023-11-19T09:23:12;9;6;
28026;PMS5003;15344;52.342;-1.290;2023-11-19T09:25:38;9;4;
28026;PMS5003;15344;52.342;-1.290;2023-11-19T09:28:04;11;3;
28026;PMS5003;15344;52.342;-1.290;2023-11-19T09:30:29;5;2;
28026;PMS5003;15344;52.342;-1.290;2023-11-19T09:32:55;8;3;
28026;PMS5003;15344;52.342;-1.290;2023-11-19T09:35:20;10;5;
28026;PMS5003;15344;52.342;-1.290;2023-11-19T09:37:46;5;3;
28026;PMS5003;15344;52.342;-1.290;2023-11-19T09:40:11;7;6;
28026;PMS5003;15344;52.342;-1.290;2023-11-19T09:42:40;12;5;
28026;PMS5003;15344;52.342;-1.290;2023-11-19T09:45:03;8;4;
28026;PMS5003;15344;52.342;-1.290;2023-11-19T09:47:28;9;4;
28026;PMS5003;15344;52.342;-1.290;2023-11-19T09:49:53;9;5;
28026;PMS5003;15344;52.342;-1.290;2023-11-19T09:52:18;7;4;
28026;PMS5003;15344;52.342;-1.290;2023-11-19T09:54:44;9;3;
28026;PMS5003;15344;52.342;-1.290;2023-11-19T09:57:10;8;4;
28026;PMS5003;15344;52.342;-1.290;2023-11-19T09:59:35;5;4;
28026;PMS5003;15344;52.342;-1.290;2023-11-19T10:02:01;10;6;
28026;PMS5003;15344;52.342;-1.290;2023-11-19T10:04:26;10;4;
28026;PMS5003;15344;52.342;-1.290;2023-11-19T10:06:52;8;5;
28026;PMS5003;15344;52.342;-1.290;2023-11-19T10:09:17;7;7;
28026;PMS5003;15344;52.342;-1.290;2023-11-19T10:11:42;10;5;
28026;PMS5003;15344;52.342;-1.290;2023-11-19T10:14:08;6;4;
28026;PMS5003;15344;52.342;-1.290;2023-11-19T10:16:34;13;3;
28026;PMS5003;15344;52.342;-1.290;2023-11-19T10:18:59;8;3;
28026;PMS5003;15344;52.342;-1.290;2023-11-19T10:21:24;7;4;
28026;PMS5003;15344;52.342;-1.290;2023-11-19T10:23:50;5;3;
28026;PMS5003;15344;52.342;-1.290;2023-11-19T10:26:15;7;4;
28026;PMS5003;15344;52.342;-1.290;2023-11-19T10:28:40;9;3;
28026;PMS5003;15344;52.342;-1.290;2023-11-19T10:31:05;6;2;
28026;PMS5003;15344;52.342;-1.290;2023-11-19T10:33:31;4;4;
28026;PMS5003;15344;52.342;-1.290;2023-11-19T10:35:56;7;3;
28026;PMS5003;15344;52.342;-1.290;2023-11-19T10:38:21;7;2;
28026;PMS5003;15344;52.342;-1.290;2023-11-19T10:40:46;4;2;
28026;PMS5003;15344;52.342;-1.290;2023-11-19T10:43:12;5;2;
28026;PMS5003;15344;52.342;-1.290;2023-11-19T10:45:37;4;3;
28026;PMS5003;15344;52.342;-1.290;2023-11-19T10:48:02;2;2;
28026;PMS5003;15344;52.342;-1.290;2023-11-19T10:50:27;8;4;
28026;PMS5003;15344;52.342;-1.290;2023-11-19T10:52:53;3;3;
28026;PMS5003;15344;52.342;-1.290;2023-11-19T10:55:18;4;1;
28026;PMS5003;15344;52.342;-1.290;2023-11-19T10:57:43;5;2;
28026;PMS5003;15344;52.342;-1.290;2023-11-19T11:00:09;4;3;
28026;PMS5003;15344;52.342;-1.290;2023-11-19T11:02:34;11;3;
28026;PMS5003;15344;52.342;-1.290;2023-11-19T11:05:00;5;2;
28026;PMS5003;15344;52.342;-1.290;2023-11-19T11:07:25;5;4;
28026;PMS5003;15344;52.342;-1.290;2023-11-19T11:09:51;4;1;
28026;PMS5003;15344;52.342;-1.290;2023-11-19T11:12:16;3;3;
28026;PMS5003;15344;52.342;-1.290;2023-11-19T11:14:41;4;1;
28026;PMS5003;15344;52.342;-1.290;2023-11-19T11:17:07;10;3;
28026;PMS5003;15344;52.342;-1.290;2023-11-19T11:19:32;6;2;
28026;PMS5003;15344;52.342;-1.290;2023-11-19T11:21:57;3;3;
28026;PMS5003;15344;52.342;-1.290;2023-11-19T11:26:53;4;3;
28026;PMS5003;15344;52.342;-1.290;2023-11-19T11:29:16;3;2;
28026;PMS5003;15344;52.342;-1.290;2023-11-19T11:31:39;5;2;
28026;PMS5003;15344;52.342;-1.290;2023-11-19T11:36:28;3;1;
28026;PMS5003;15344;52.342;-1.290;2023-11-19T11:38:54;5;3;
28026;PMS5003;15344;52.342;-1.290;2023-11-19T11:41:19;5;2;
28026;PMS5003;15344;52.342;-1.290;2023-11-19T11:43:44;2;2;
28026;PMS5003;15344;52.342;-1.290;2023-11-19T11:46:11;2;2;
28026;PMS5003;15344;52.342;-1.290;2023-11-19T11:48:35;6;1;
28026;PMS5003;15344;52.342;-1.290;2023-11-19T11:51:00;2;2;
28026;PMS5003;15344;52.342;-1.290;2023-11-19T11:53:25;5;2;
28026;PMS5003;15344;52.342;-1.290;2023-11-19T11:55:52;1;1;
28026;PMS5003;15344;52.342;-1.290;2023-11-19T11:58:17;6;3;
28026;PMS5003;15344;52.342;-1.290;2023-11-19T12:00:41;5;2;
28026;PMS5003;15344;52.342;-1.290;2023-11-19T12:03:07;4;2;
28026;PMS5003;15344;52.342;-1.290;2023-11-19T12:05:32;2;2;
28026;PMS5003;15344;52.342;-1.290;2023-11-19T12:07:58;7;4;
28026;PMS5003;15344;52.342;-1.290;2023-11-19T12:10:22;5;2;
28026;PMS5003;15344;52.342;-1.290;2023-11-19T12:12:47;5;0;
28026;PMS5003;15344;52.342;-1.290;2023-11-19T12:15:13;5;2;
28026;PMS5003;15344;52.342;-1.290;2023-11-19T12:17:43;4;2;
28026;PMS5003;15344;52.342;-1.290;2023-11-19T12:20:04;4;3;
28026;PMS5003;15344;52.342;-1.290;2023-11-19T12:22:28;6;4;
28026;PMS5003;15344;52.342;-1.290;2023-11-19T12:24:54;3;2;
28026;PMS5003;15344;52.342;-1.290;2023-11-19T12:27:19;6;3;
28026;PMS5003;15344;52.342;-1.290;2023-11-19T12:29:44;3;1;
28026;PMS5003;15344;52.342;-1.290;2023-11-19T12:32:09;4;3;
28026;PMS5003;15344;52.342;-1.290;2023-11-19T12:34:35;3;2;
28026;PMS5003;15344;52.342;-1.290;2023-11-19T12:37:03;2;2;
28026;PMS5003;15344;52.342;-1.290;2023-11-19T12:39:25;5;2;
28026;PMS5003;15344;52.342;-1.290;2023-11-19T12:41:51;2;0;
28026;PMS5003;15344;52.342;-1.290;2023-11-19T12:44:16;4;1;
28026;PMS5003;15344;52.342;-1.290;2023-11-19T12:46:41;3;2;
28026;PMS5003;15344;52.342;-1.290;2023-11-19T12:49:06;1;1;
28026;PMS5003;15344;52.342;-1.290;2023-11-19T12:51:31;3;2;
28026;PMS5003;15344;52.342;-1.290;2023-11-19T12:53:57;3;2;
28026;PMS5003;15344;52.342;-1.290;2023-11-19T12:56:22;3;2;
28026;PMS5003;15344;52.342;-1.290;2023-11-19T12:58:47;2;0;
28026;PMS5003;15344;52.342;-1.290;2023-11-19T13:01:15;2;1;
28026;PMS5003;15344;52.342;-1.290;2023-11-19T13:03:38;2;0;
28026;PMS5003;15344;52.342;-1.290;2023-11-19T13:06:03;5;2;
28026;PMS5003;15344;52.342;-1.290;2023-11-19T13:08:28;4;0;
28026;PMS5003;15344;52.342;-1.290;2023-11-19T13:10:53;6;1;
28026;PMS5003;15344;52.342;-1.290;2023-11-19T13:13:19;2;2;
28026;PMS5003;15344;52.342;-1.290;2023-11-19T13:15:44;3;1;
28026;PMS5003;15344;52.342;-1.290;2023-11-19T13:18:09;2;2;
28026;PMS5003;15344;52.342;-1.290;2023-11-19T13:20:34;2;1;
28026;PMS5003;15344;52.342;-1.290;2023-11-19T13:23:00;1;1;
28026;PMS5003;15344;52.342;-1.290;2023-11-19T13:25:25;3;2;
28026;PMS5003;15344;52.342;-1.290;2023-11-19T13:27:50;3;1;
28026;PMS5003;15344;52.342;-1.290;2023-11-19T13:30:16;1;0;
28026;PMS5003;15344;52.342;-1.290;2023-11-19T13:32:40;5;3;
28026;PMS5003;15344;52.342;-1.290;2023-11-19T13:35:06;3;2;
28026;PMS5003;15344;52.342;-1.290;2023-11-19T13:37:31;3;1;
28026;PMS5003;15344;52.342;-1.290;2023-11-19T13:39:56;2;0;
28026;PMS5003;15344;52.342;-1.290;2023-11-19T13:42:21;1;1;
28026;PMS5003;15344;52.342;-1.290;2023-11-19T13:44:47;3;1;
28026;PMS5003;15344;52.342;-1.290;2023-11-19T13:47:12;3;2;
28026;PMS5003;15344;52.342;-1.290;2023-11-19T13:49:37;2;0;
28026;PMS5003;15344;52.342;-1.290;2023-11-19T13:52:02;0;0;
28026;PMS5003;15344;52.342;-1.290;2023-11-19T13:54:27;1;0;
28026;PMS5003;15344;52.342;-1.290;2023-11-19T13:56:54;0;0;
28026;PMS5003;15344;52.342;-1.290;2023-11-19T13:59:18;2;0;
28026;PMS5003;15344;52.342;-1.290;2023-11-19T14:01:43;0;0;
28026;PMS5003;15344;52.342;-1.290;2023-11-19T14:04:08;3;2;
28026;PMS5003;15344;52.342;-1.290;2023-11-19T14:06:34;0;0;
28026;PMS5003;15344;52.342;-1.290;2023-11-19T14:08:59;4;1;
28026;PMS5003;15344;52.342;-1.290;2023-11-19T14:11:24;2;1;
28026;PMS5003;15344;52.342;-1.290;2023-11-19T14:13:49;1;1;
28026;PMS5003;15344;52.342;-1.290;2023-11-19T14:16:15;2;1;
28026;PMS5003;15344;52.342;-1.290;2023-11-19T14:18:40;2;0;
28026;PMS5003;15344;52.342;-1.290;2023-11-19T14:21:05;5;1;
28026;PMS5003;15344;52.342;-1.290;2023-11-19T14:23:31;3;1;
28026;PMS5003;15344;52.342;-1.290;2023-11-19T14:25:55;1;0;
28026;PMS5003;15344;52.342;-1.290;2023-11-19T14:28:21;5;1;
28026;PMS5003;15344;52.342;-1.290;2023-11-19T14:30:46;0;0;
28026;PMS5003;15344;52.342;-1.290;2023-11-19T14:33:11;1;1;
28026;PMS5003;15344;52.342;-1.290;2023-11-19T14:35:36;0;0;
28026;PMS5003;15344;52.342;-1.290;2023-11-19T14:38:02;0;0;
28026;PMS5003;15344;52.342;-1.290;2023-11-19T14:40:27;1;1;
28026;PMS5003;15344;52.342;-1.290;2023-11-19T14:42:52;3;1;
28026;PMS5003;15344;52.342;-1.290;2023-11-19T14:45:17;1;1;
28026;PMS5003;15344;52.342;-1.290;2023-11-19T14:47:43;1;1;
28026;PMS5003;15344;52.342;-1.290;2023-11-19T14:50:08;1;1;
28026;PMS5003;15344;52.342;-1.290;2023-11-19T14:52:34;0;0;
28026;PMS5003;15344;52.342;-1.290;2023-11-19T14:54:58;2;2;
28026;PMS5003;15344;52.342;-1.290;2023-11-19T14:57:23;3;1;
28026;PMS5003;15344;52.342;-1.290;2023-11-19T14:59:49;0;0;
28026;PMS5003;15344;52.342;-1.290;2023-11-19T15:02:14;1;1;
28026;PMS5003;15344;52.342;-1.290;2023-11-19T15:04:39;3;1;
28026;PMS5003;15344;52.342;-1.290;2023-11-19T15:07:04;2;1;
28026;PMS5003;15344;52.342;-1.290;2023-11-19T15:09:30;1;1;
28026;PMS5003;15344;52.342;-1.290;2023-11-19T15:11:55;2;2;
28026;PMS5003;15344;52.342;-1.290;2023-11-19T15:14:20;5;1;
28026;PMS5003;15344;52.342;-1.290;2023-11-19T15:16:46;1;1;
28026;PMS5003;15344;52.342;-1.290;2023-11-19T15:19:11;2;1;
28026;PMS5003;15344;52.342;-1.290;2023-11-19T15:21:36;5;2;
28026;PMS5003;15344;52.342;-1.290;2023-11-19T15:24:01;2;0;
28026;PMS5003;15344;52.342;-1.290;2023-11-19T15:26:27;2;2;
28026;PMS5003;15344;52.342;-1.290;2023-11-19T15:28:52;3;0;
28026;PMS5003;15344;52.342;-1.290;2023-11-19T15:31:18;7;1;
28026;PMS5003;15344;52.342;-1.290;2023-11-19T15:33:43;2;1;
28026;PMS5003;15344;52.342;-1.290;2023-11-19T15:36:09;2;1;
28026;PMS5003;15344;52.342;-1.290;2023-11-19T15:38:34;3;2;
28026;PMS5003;15344;52.342;-1.290;2023-11-19T15:40:59;2;1;
28026;PMS5003;15344;52.342;-1.290;2023-11-19T15:43:24;2;1;
28026;PMS5003;15344;52.342;-1.290;2023-11-19T15:45:50;0;0;
28026;PMS5003;15344;52.342;-1.290;2023-11-19T15:48:15;1;0;
28026;PMS5003;15344;52.342;-1.290;2023-11-19T15:50:40;0;0;
28026;PMS5003;15344;52.342;-1.290;2023-11-19T15:53:05;1;0;
28026;PMS5003;15344;52.342;-1.290;2023-11-19T15:55:30;4;1;
28026;PMS5003;15344;52.342;-1.290;2023-11-19T15:57:56;1;1;
28026;PMS5003;15344;52.342;-1.290;2023-11-19T16:00:21;5;2;
28026;PMS5003;15344;52.342;-1.290;2023-11-19T16:02:46;2;2;
28026;PMS5003;15344;52.342;-1.290;2023-11-19T16:05:12;2;0;
28026;PMS5003;15344;52.342;-1.290;2023-11-19T16:07:37;1;1;
28026;PMS5003;15344;52.342;-1.290;2023-11-19T16:10:02;2;1;
28026;PMS5003;15344;52.342;-1.290;2023-11-19T16:12:27;4;1;
28026;PMS5003;15344;52.342;-1.290;2023-11-19T16:14:52;3;3;
28026;PMS5003;15344;52.342;-1.290;2023-11-19T16:17:18;5;1;
28026;PMS5003;15344;52.342;-1.290;2023-11-19T16:19:43;3;2;